sensor_id;sensor_type;location;lat;lon;timestamp;P1;durP1;ratioP1;P2;durP2;ratioP2
53915;SDS011;39827;49.652;18.770;2023-03-25T00:02:19;485.60;;;442.40;;
53915;SDS011;39827;49.652;18.770;2023-03-25T00:04:48;431.20;;;394.85;;
53915;SDS011;39827;49.652;18.770;2023-03-25T00:07:18;389.80;;;355.80;;
53915;SDS011;39827;49.652;18.770;2023-03-25T00:09:45;489.10;;;445.95;;
53915;SDS011;39827;49.652;18.770;2023-03-25T00:12:11;533.55;;;489.38;;
53915;SDS011;39827;49.652;18.770;2023-03-25T00:14:37;697.90;;;642.08;;
53915;SDS011;39827;49.652;18.770;2023-03-25T00:17:03;630.40;;;579.90;;
53915;SDS011;39827;49.652;18.770;2023-03-25T00:19:30;729.78;;;672.28;;
53915;SDS011;39827;49.652;18.770;2023-03-25T00:21:57;697.42;;;642.78;;
53915;SDS011;39827;49.652;18.770;2023-03-25T00:24:23;639.55;;;588.08;;
53915;SDS011;39827;49.652;18.770;2023-03-25T00:26:48;583.67;;;536.60;;
53915;SDS011;39827;49.652;18.770;2023-03-25T00:29:14;662.60;;;609.65;;
53915;SDS011;39827;49.652;18.770;2023-03-25T00:31:40;576.53;;;530.58;;
53915;SDS011;39827;49.652;18.770;2023-03-25T00:34:07;575.42;;;527.22;;
53915;SDS011;39827;49.652;18.770;2023-03-25T00:36:33;487.17;;;446.15;;
53915;SDS011;39827;49.652;18.770;2023-03-25T00:39:02;462.92;;;424.58;;
53915;SDS011;39827;49.652;18.770;2023-03-25T00:41:28;360.52;;;330.85;;
53915;SDS011;39827;49.652;18.770;2023-03-25T00:43:55;603.15;;;553.13;;
53915;SDS011;39827;49.652;18.770;2023-03-25T00:46:25;582.95;;;533.67;;
53915;SDS011;39827;49.652;18.770;2023-03-25T00:48:52;540.42;;;496.42;;
53915;SDS011;39827;49.652;18.770;2023-03-25T00:51:18;543.20;;;498.67;;
53915;SDS011;39827;49.652;18.770;2023-03-25T00:53:46;487.52;;;447.80;;
53915;SDS011;39827;49.652;18.770;2023-03-25T00:56:16;558.67;;;512.35;;
53915;SDS011;39827;49.652;18.770;2023-03-25T00:58:41;534.30;;;490.52;;
53915;SDS011;39827;49.652;18.770;2023-03-25T01:01:08;507.20;;;465.38;;
53915;SDS011;39827;49.652;18.770;2023-03-25T01:03:41;575.67;;;528.50;;
53915;SDS011;39827;49.652;18.770;2023-03-25T01:06:13;523.42;;;481.08;;
53915;SDS011;39827;49.652;18.770;2023-03-25T01:08:40;500.10;;;458.48;;
53915;SDS011;39827;49.652;18.770;2023-03-25T01:11:15;429.73;;;394.52;;
53915;SDS011;39827;49.652;18.770;2023-03-25T01:13:42;496.23;;;456.80;;
53915;SDS011;39827;49.652;18.770;2023-03-25T01:16:08;511.38;;;468.95;;
53915;SDS011;39827;49.652;18.770;2023-03-25T01:18:34;466.55;;;428.33;;
53915;SDS011;39827;49.652;18.770;2023-03-25T01:21:02;596.55;;;547.65;;
53915;SDS011;39827;49.652;18.770;2023-03-25T01:23:31;421.85;;;388.33;;
53915;SDS011;39827;49.652;18.770;2023-03-25T01:25:57;512.85;;;471.67;;
53915;SDS011;39827;49.652;18.770;2023-03-25T01:28:23;481.15;;;443.75;;
53915;SDS011;39827;49.652;18.770;2023-03-25T01:30:48;513.67;;;472.45;;
53915;SDS011;39827;49.652;18.770;2023-03-25T01:33:14;556.75;;;512.75;;
53915;SDS011;39827;49.652;18.770;2023-03-25T01:35:39;605.60;;;557.97;;
53915;SDS011;39827;49.652;18.770;2023-03-25T01:38:05;608.22;;;559.28;;
53915;SDS011;39827;49.652;18.770;2023-03-25T01:40:31;544.00;;;501.55;;
53915;SDS011;39827;49.652;18.770;2023-03-25T01:42:56;488.38;;;448.38;;
53915;SDS011;39827;49.652;18.770;2023-03-25T01:45:28;330.05;;;302.95;;
53915;SDS011;39827;49.652;18.770;2023-03-25T01:48:07;285.65;;;262.67;;
53915;SDS011;39827;49.652;18.770;2023-03-25T01:50:40;301.25;;;277.95;;
53915;SDS011;39827;49.652;18.770;2023-03-25T01:53:09;268.20;;;247.95;;
53915;SDS011;39827;49.652;18.770;2023-03-25T01:55:35;294.83;;;271.55;;
53915;SDS011;39827;49.652;18.770;2023-03-25T01:58:05;304.30;;;280.33;;
53915;SDS011;39827;49.652;18.770;2023-03-25T02:00:36;309.23;;;285.52;;
53915;SDS011;39827;49.652;18.770;2023-03-25T02:03:04;281.05;;;258.55;;
53915;SDS011;39827;49.652;18.770;2023-03-25T02:05:37;328.70;;;302.42;;
53915;SDS011;39827;49.652;18.770;2023-03-25T02:08:08;312.52;;;288.75;;
53915;SDS011;39827;49.652;18.770;2023-03-25T02:10:34;299.10;;;275.83;;
53915;SDS011;39827;49.652;18.770;2023-03-25T02:13:01;312.75;;;287.95;;
53915;SDS011;39827;49.652;18.770;2023-03-25T02:15:32;339.13;;;312.38;;
53915;SDS011;39827;49.652;18.770;2023-03-25T02:41:33;307.40;;;283.15;;
53915;SDS011;39827;49.652;18.770;2023-03-25T02:44:22;284.05;;;261.13;;
53915;SDS011;39827;49.652;18.770;2023-03-25T02:46:53;266.45;;;245.65;;
53915;SDS011;39827;49.652;18.770;2023-03-25T02:49:31;287.30;;;262.83;;
53915;SDS011;39827;49.652;18.770;2023-03-25T02:52:06;287.52;;;263.17;;
53915;SDS011;39827;49.652;18.770;2023-03-25T02:54:38;238.15;;;215.52;;
53915;SDS011;39827;49.652;18.770;2023-03-25T02:57:05;235.63;;;216.20;;
53915;SDS011;39827;49.652;18.770;2023-03-25T02:59:32;597.17;;;549.88;;
53915;SDS011;39827;49.652;18.770;2023-03-25T03:02:04;321.30;;;292.75;;
53915;SDS011;39827;49.652;18.770;2023-03-25T03:04:49;255.70;;;232.38;;
53915;SDS011;39827;49.652;18.770;2023-03-25T03:10:05;275.02;;;250.00;;
53915;SDS011;39827;49.652;18.770;2023-03-25T03:16:12;335.58;;;306.23;;
53915;SDS011;39827;49.652;18.770;2023-03-25T03:18:50;254.93;;;233.13;;
53915;SDS011;39827;49.652;18.770;2023-03-25T03:21:55;310.73;;;282.35;;
53915;SDS011;39827;49.652;18.770;2023-03-25T03:24:35;269.13;;;245.13;;
53915;SDS011;39827;49.652;18.770;2023-03-25T03:27:11;270.40;;;247.85;;
53915;SDS011;39827;49.652;18.770;2023-03-25T03:29:48;247.20;;;226.68;;
53915;SDS011;39827;49.652;18.770;2023-03-25T03:32:19;238.95;;;218.48;;
53915;SDS011;39827;49.652;18.770;2023-03-25T03:35:14;295.38;;;270.27;;
53915;SDS011;39827;49.652;18.770;2023-03-25T03:37:50;280.70;;;258.85;;
53915;SDS011;39827;49.652;18.770;2023-03-25T03:40:23;332.98;;;307.20;;
53915;SDS011;39827;49.652;18.770;2023-03-25T03:43:53;268.63;;;248.02;;
53915;SDS011;39827;49.652;18.770;2023-03-25T03:45:59;293.42;;;270.50;;
53915;SDS011;39827;49.652;18.770;2023-03-25T03:48:48;313.17;;;289.20;;
53915;SDS011;39827;49.652;18.770;2023-03-25T03:51:32;338.88;;;313.13;;
53915;SDS011;39827;49.652;18.770;2023-03-25T03:54:05;342.08;;;315.35;;
53915;SDS011;39827;49.652;18.770;2023-03-25T04:01:58;367.35;;;339.63;;
53915;SDS011;39827;49.652;18.770;2023-03-25T04:04:27;403.80;;;371.42;;
53915;SDS011;39827;49.652;18.770;2023-03-25T04:12:31;422.38;;;387.80;;
53915;SDS011;39827;49.652;18.770;2023-03-25T04:15:02;359.27;;;331.33;;
53915;SDS011;39827;49.652;18.770;2023-03-25T04:17:29;326.48;;;301.23;;
53915;SDS011;39827;49.652;18.770;2023-03-25T04:19:56;356.13;;;328.25;;
53915;SDS011;39827;49.652;18.770;2023-03-25T04:22:22;333.35;;;307.15;;
53915;SDS011;39827;49.652;18.770;2023-03-25T04:24:48;338.85;;;311.48;;
53915;SDS011;39827;49.652;18.770;2023-03-25T04:27:19;368.60;;;337.92;;
53915;SDS011;39827;49.652;18.770;2023-03-25T04:29:47;302.90;;;278.98;;
53915;SDS011;39827;49.652;18.770;2023-03-25T04:32:13;359.60;;;330.63;;
53915;SDS011;39827;49.652;18.770;2023-03-25T04:34:40;320.70;;;295.50;;
53915;SDS011;39827;49.652;18.770;2023-03-25T04:37:05;365.13;;;335.13;;
53915;SDS011;39827;49.652;18.770;2023-03-25T04:39:31;291.02;;;266.70;;
53915;SDS011;39827;49.652;18.770;2023-03-25T04:41:56;297.58;;;273.55;;
53915;SDS011;39827;49.652;18.770;2023-03-25T04:44:26;346.50;;;317.95;;
53915;SDS011;39827;49.652;18.770;2023-03-25T04:46:52;324.90;;;297.98;;
53915;SDS011;39827;49.652;18.770;2023-03-25T04:49:20;331.73;;;305.63;;
53915;SDS011;39827;49.652;18.770;2023-03-25T04:51:47;350.80;;;323.20;;
53915;SDS011;39827;49.652;18.770;2023-03-25T04:54:16;348.17;;;321.00;;
53915;SDS011;39827;49.652;18.770;2023-03-25T04:56:42;343.95;;;317.20;;
53915;SDS011;39827;49.652;18.770;2023-03-25T04:59:07;355.65;;;327.17;;
53915;SDS011;39827;49.652;18.770;2023-03-25T05:01:34;395.73;;;364.63;;
53915;SDS011;39827;49.652;18.770;2023-03-25T05:04:06;347.10;;;319.90;;
53915;SDS011;39827;49.652;18.770;2023-03-25T05:06:36;353.13;;;324.83;;
53915;SDS011;39827;49.652;18.770;2023-03-25T05:09:04;364.33;;;335.38;;
53915;SDS011;39827;49.652;18.770;2023-03-25T05:11:31;345.55;;;317.95;;
53915;SDS011;39827;49.652;18.770;2023-03-25T05:13:57;348.05;;;320.75;;
53915;SDS011;39827;49.652;18.770;2023-03-25T05:16:23;381.45;;;351.50;;
53915;SDS011;39827;49.652;18.770;2023-03-25T05:18:48;300.33;;;277.52;;
53915;SDS011;39827;49.652;18.770;2023-03-25T05:21:14;366.85;;;338.05;;
53915;SDS011;39827;49.652;18.770;2023-03-25T05:23:40;352.95;;;325.08;;
53915;SDS011;39827;49.652;18.770;2023-03-25T05:26:06;359.30;;;330.80;;
53915;SDS011;39827;49.652;18.770;2023-03-25T05:28:32;358.15;;;328.35;;
53915;SDS011;39827;49.652;18.770;2023-03-25T05:30:58;351.27;;;322.67;;
53915;SDS011;39827;49.652;18.770;2023-03-25T05:33:23;356.75;;;328.13;;
53915;SDS011;39827;49.652;18.770;2023-03-25T05:35:49;379.23;;;348.25;;
53915;SDS011;39827;49.652;18.770;2023-03-25T05:38:14;349.63;;;322.30;;
53915;SDS011;39827;49.652;18.770;2023-03-25T05:40:46;393.55;;;361.02;;
53915;SDS011;39827;49.652;18.770;2023-03-25T05:43:15;407.80;;;374.67;;
53915;SDS011;39827;49.652;18.770;2023-03-25T05:45:46;377.75;;;347.23;;
53915;SDS011;39827;49.652;18.770;2023-03-25T05:48:12;410.10;;;377.15;;
53915;SDS011;39827;49.652;18.770;2023-03-25T05:50:38;344.75;;;317.75;;
53915;SDS011;39827;49.652;18.770;2023-03-25T05:53:07;371.52;;;340.95;;
53915;SDS011;39827;49.652;18.770;2023-03-25T05:55:36;374.73;;;344.95;;
53915;SDS011;39827;49.652;18.770;2023-03-25T05:58:01;469.77;;;433.05;;
53915;SDS011;39827;49.652;18.770;2023-03-25T06:00:27;401.77;;;369.67;;
53915;SDS011;39827;49.652;18.770;2023-03-25T06:02:54;432.73;;;398.42;;
53915;SDS011;39827;49.652;18.770;2023-03-25T06:05:19;361.98;;;332.90;;
53915;SDS011;39827;49.652;18.770;2023-03-25T06:07:47;401.42;;;369.15;;
53915;SDS011;39827;49.652;18.770;2023-03-25T06:10:14;356.42;;;327.95;;
53915;SDS011;39827;49.652;18.770;2023-03-25T06:12:41;405.50;;;372.08;;
53915;SDS011;39827;49.652;18.770;2023-03-25T06:15:08;392.00;;;360.45;;
53915;SDS011;39827;49.652;18.770;2023-03-25T06:17:34;423.35;;;386.45;;
53915;SDS011;39827;49.652;18.770;2023-03-25T06:20:03;322.10;;;296.35;;
53915;SDS011;39827;49.652;18.770;2023-03-25T06:22:38;341.20;;;313.08;;
53915;SDS011;39827;49.652;18.770;2023-03-25T06:25:05;329.63;;;302.38;;
53915;SDS011;39827;49.652;18.770;2023-03-25T06:27:31;314.10;;;287.67;;
53915;SDS011;39827;49.652;18.770;2023-03-25T06:29:58;557.50;;;514.13;;
53915;SDS011;39827;49.652;18.770;2023-03-25T06:32:26;304.33;;;278.90;;
53915;SDS011;39827;49.652;18.770;2023-03-25T06:34:52;257.50;;;237.23;;
53915;SDS011;39827;49.652;18.770;2023-03-25T06:37:17;325.48;;;297.92;;
53915;SDS011;39827;49.652;18.770;2023-03-25T06:39:43;316.38;;;290.05;;
53915;SDS011;39827;49.652;18.770;2023-03-25T06:42:13;266.42;;;244.07;;
53915;SDS011;39827;49.652;18.770;2023-03-25T06:44:39;271.70;;;247.77;;
53915;SDS011;39827;49.652;18.770;2023-03-25T06:47:05;415.30;;;378.83;;
53915;SDS011;39827;49.652;18.770;2023-03-25T06:49:30;508.85;;;468.25;;
53915;SDS011;39827;49.652;18.770;2023-03-25T06:51:56;381.90;;;347.73;;
53915;SDS011;39827;49.652;18.770;2023-03-25T06:54:22;395.25;;;359.55;;
53915;SDS011;39827;49.652;18.770;2023-03-25T06:56:47;519.90;;;477.20;;
53915;SDS011;39827;49.652;18.770;2023-03-25T06:59:13;576.92;;;530.65;;
53915;SDS011;39827;49.652;18.770;2023-03-25T07:01:38;648.78;;;596.50;;
53915;SDS011;39827;49.652;18.770;2023-03-25T07:04:04;843.10;;;773.97;;
53915;SDS011;39827;49.652;18.770;2023-03-25T07:06:29;831.55;;;767.70;;
53915;SDS011;39827;49.652;18.770;2023-03-25T07:08:55;805.03;;;748.92;;
53915;SDS011;39827;49.652;18.770;2023-03-25T07:11:27;747.65;;;696.25;;
53915;SDS011;39827;49.652;18.770;2023-03-25T07:13:54;763.53;;;710.60;;
53915;SDS011;39827;49.652;18.770;2023-03-25T07:16:20;743.50;;;692.05;;
53915;SDS011;39827;49.652;18.770;2023-03-25T07:18:46;740.67;;;690.08;;
53915;SDS011;39827;49.652;18.770;2023-03-25T07:21:12;726.38;;;676.33;;
53915;SDS011;39827;49.652;18.770;2023-03-25T07:23:38;713.58;;;663.38;;
53915;SDS011;39827;49.652;18.770;2023-03-25T07:26:03;741.58;;;689.92;;
53915;SDS011;39827;49.652;18.770;2023-03-25T07:28:29;718.67;;;667.47;;
53915;SDS011;39827;49.652;18.770;2023-03-25T07:30:54;687.30;;;637.05;;
53915;SDS011;39827;49.652;18.770;2023-03-25T07:33:20;669.08;;;619.30;;
53915;SDS011;39827;49.652;18.770;2023-03-25T07:35:45;684.92;;;634.47;;
53915;SDS011;39827;49.652;18.770;2023-03-25T07:38:10;708.67;;;656.50;;
53915;SDS011;39827;49.652;18.770;2023-03-25T07:40:36;638.33;;;590.60;;
53915;SDS011;39827;49.652;18.770;2023-03-25T07:43:01;709.85;;;657.30;;
53915;SDS011;39827;49.652;18.770;2023-03-25T07:45:27;697.25;;;645.72;;
53915;SDS011;39827;49.652;18.770;2023-03-25T07:47:52;731.38;;;677.15;;
53915;SDS011;39827;49.652;18.770;2023-03-25T07:50:19;720.75;;;667.20;;
53915;SDS011;39827;49.652;18.770;2023-03-25T07:52:46;728.22;;;674.50;;
53915;SDS011;39827;49.652;18.770;2023-03-25T07:55:11;763.35;;;707.30;;
53915;SDS011;39827;49.652;18.770;2023-03-25T07:57:38;776.72;;;719.88;;
53915;SDS011;39827;49.652;18.770;2023-03-25T08:00:05;801.15;;;742.58;;
53915;SDS011;39827;49.652;18.770;2023-03-25T08:02:32;794.70;;;737.17;;
53915;SDS011;39827;49.652;18.770;2023-03-25T08:04:57;801.42;;;744.42;;
53915;SDS011;39827;49.652;18.770;2023-03-25T08:07:24;826.58;;;768.53;;
53915;SDS011;39827;49.652;18.770;2023-03-25T08:09:49;823.05;;;766.75;;
53915;SDS011;39827;49.652;18.770;2023-03-25T08:12:15;822.95;;;767.17;;
53915;SDS011;39827;49.652;18.770;2023-03-25T08:14:40;830.72;;;773.75;;
53915;SDS011;39827;49.652;18.770;2023-03-25T08:17:05;851.80;;;792.38;;
53915;SDS011;39827;49.652;18.770;2023-03-25T08:19:31;802.35;;;747.60;;
53915;SDS011;39827;49.652;18.770;2023-03-25T08:21:57;795.80;;;741.22;;
53915;SDS011;39827;49.652;18.770;2023-03-25T08:24:22;808.15;;;753.08;;
53915;SDS011;39827;49.652;18.770;2023-03-25T08:26:50;784.15;;;730.75;;
53915;SDS011;39827;49.652;18.770;2023-03-25T08:29:18;756.13;;;705.38;;
53915;SDS011;39827;49.652;18.770;2023-03-25T08:31:44;782.60;;;730.03;;
53915;SDS011;39827;49.652;18.770;2023-03-25T08:34:10;774.58;;;722.00;;
53915;SDS011;39827;49.652;18.770;2023-03-25T08:36:36;756.50;;;704.88;;
53915;SDS011;39827;49.652;18.770;2023-03-25T08:39:03;736.80;;;686.35;;
53915;SDS011;39827;49.652;18.770;2023-03-25T08:41:35;730.50;;;680.42;;
53915;SDS011;39827;49.652;18.770;2023-03-25T08:44:02;699.15;;;650.38;;
53915;SDS011;39827;49.652;18.770;2023-03-25T08:46:28;736.70;;;684.70;;
53915;SDS011;39827;49.652;18.770;2023-03-25T08:48:53;718.65;;;667.08;;
53915;SDS011;39827;49.652;18.770;2023-03-25T08:51:20;719.33;;;666.63;;
53915;SDS011;39827;49.652;18.770;2023-03-25T08:53:45;678.72;;;629.00;;
53915;SDS011;39827;49.652;18.770;2023-03-25T08:56:11;695.15;;;643.92;;
53915;SDS011;39827;49.652;18.770;2023-03-25T08:58:36;717.35;;;663.78;;
53915;SDS011;39827;49.652;18.770;2023-03-25T09:01:02;674.20;;;623.55;;
53915;SDS011;39827;49.652;18.770;2023-03-25T09:03:28;668.72;;;618.45;;
53915;SDS011;39827;49.652;18.770;2023-03-25T09:05:54;655.17;;;605.78;;
53915;SDS011;39827;49.652;18.770;2023-03-25T09:08:19;661.60;;;611.17;;
53915;SDS011;39827;49.652;18.770;2023-03-25T09:10:45;674.53;;;623.28;;
53915;SDS011;39827;49.652;18.770;2023-03-25T09:13:11;628.72;;;580.97;;
53915;SDS011;39827;49.652;18.770;2023-03-25T09:15:36;654.20;;;604.45;;
53915;SDS011;39827;49.652;18.770;2023-03-25T09:18:02;633.63;;;585.50;;
53915;SDS011;39827;49.652;18.770;2023-03-25T09:20:27;481.08;;;444.20;;
53915;SDS011;39827;49.652;18.770;2023-03-25T09:22:52;638.97;;;590.00;;
53915;SDS011;39827;49.652;18.770;2023-03-25T09:25:18;690.60;;;638.60;;
53915;SDS011;39827;49.652;18.770;2023-03-25T09:27:43;723.72;;;669.60;;
53915;SDS011;39827;49.652;18.770;2023-03-25T09:30:09;670.90;;;620.20;;
53915;SDS011;39827;49.652;18.770;2023-03-25T09:32:35;707.85;;;655.13;;
53915;SDS011;39827;49.652;18.770;2023-03-25T09:35:01;768.55;;;711.25;;
53915;SDS011;39827;49.652;18.770;2023-03-25T09:37:26;753.88;;;698.90;;
53915;SDS011;39827;49.652;18.770;2023-03-25T09:39:51;768.60;;;712.55;;
53915;SDS011;39827;49.652;18.770;2023-03-25T09:50:46;693.20;;;641.35;;
53915;SDS011;39827;49.652;18.770;2023-03-25T09:53:17;711.53;;;658.83;;
53915;SDS011;39827;49.652;18.770;2023-03-25T09:55:52;692.28;;;641.78;;
53915;SDS011;39827;49.652;18.770;2023-03-25T10:00:46;747.17;;;691.58;;
53915;SDS011;39827;49.652;18.770;2023-03-25T10:03:43;663.67;;;613.78;;
53915;SDS011;39827;49.652;18.770;2023-03-25T10:06:18;707.55;;;654.13;;
53915;SDS011;39827;49.652;18.770;2023-03-25T10:11:24;700.20;;;648.13;;
53915;SDS011;39827;49.652;18.770;2023-03-25T10:13:59;703.60;;;651.00;;
53915;SDS011;39827;49.652;18.770;2023-03-25T10:22:41;721.47;;;667.72;;
53915;SDS011;39827;49.652;18.770;2023-03-25T10:25:17;742.85;;;687.88;;
53915;SDS011;39827;49.652;18.770;2023-03-25T10:27:50;759.63;;;703.75;;
53915;SDS011;39827;49.652;18.770;2023-03-25T10:32:49;821.40;;;761.40;;
53915;SDS011;39827;49.652;18.770;2023-03-25T10:35:19;777.15;;;722.40;;
53915;SDS011;39827;49.652;18.770;2023-03-25T10:37:52;797.35;;;741.25;;
53915;SDS011;39827;49.652;18.770;2023-03-25T10:40:22;827.45;;;768.67;;
53915;SDS011;39827;49.652;18.770;2023-03-25T10:45:30;802.90;;;747.65;;
53915;SDS011;39827;49.652;18.770;2023-03-25T10:48:05;770.22;;;717.17;;
53915;SDS011;39827;49.652;18.770;2023-03-25T10:50:37;758.78;;;705.85;;
53915;SDS011;39827;49.652;18.770;2023-03-25T10:53:05;771.85;;;717.65;;
53915;SDS011;39827;49.652;18.770;2023-03-25T10:55:34;760.42;;;708.28;;
53915;SDS011;39827;49.652;18.770;2023-03-25T10:58:01;779.08;;;725.35;;
53915;SDS011;39827;49.652;18.770;2023-03-25T11:00:27;791.03;;;736.63;;
53915;SDS011;39827;49.652;18.770;2023-03-25T11:02:54;787.90;;;732.72;;
53915;SDS011;39827;49.652;18.770;2023-03-25T11:05:21;731.50;;;680.35;;
53915;SDS011;39827;49.652;18.770;2023-03-25T11:10:27;814.60;;;758.47;;
53915;SDS011;39827;49.652;18.770;2023-03-25T11:12:54;778.83;;;725.60;;
53915;SDS011;39827;49.652;18.770;2023-03-25T11:17:59;811.38;;;750.92;;
53915;SDS011;39827;49.652;18.770;2023-03-25T11:20:27;790.75;;;731.05;;
53915;SDS011;39827;49.652;18.770;2023-03-25T11:22:58;794.90;;;734.03;;
53915;SDS011;39827;49.652;18.770;2023-03-25T11:25:30;771.63;;;710.08;;
53915;SDS011;39827;49.652;18.770;2023-03-25T11:28:01;628.38;;;576.85;;
53915;SDS011;39827;49.652;18.770;2023-03-25T11:30:29;428.58;;;390.85;;
53915;SDS011;39827;49.652;18.770;2023-03-25T11:33:04;382.50;;;349.52;;
53915;SDS011;39827;49.652;18.770;2023-03-25T11:35:37;413.83;;;380.13;;
53915;SDS011;39827;49.652;18.770;2023-03-25T11:38:28;450.10;;;414.55;;
53915;SDS011;39827;49.652;18.770;2023-03-25T11:40:56;609.70;;;558.80;;
53915;SDS011;39827;49.652;18.770;2023-03-25T11:43:27;602.33;;;551.80;;
53915;SDS011;39827;49.652;18.770;2023-03-25T11:46:17;669.05;;;617.85;;
53915;SDS011;39827;49.652;18.770;2023-03-25T11:48:45;695.03;;;642.05;;
53915;SDS011;39827;49.652;18.770;2023-03-25T11:51:22;629.22;;;579.83;;
53915;SDS011;39827;49.652;18.770;2023-03-25T11:53:56;547.15;;;500.27;;
53915;SDS011;39827;49.652;18.770;2023-03-25T11:56:37;533.00;;;488.58;;
53915;SDS011;39827;49.652;18.770;2023-03-25T11:59:07;621.22;;;572.35;;
53915;SDS011;39827;49.652;18.770;2023-03-25T12:01:44;635.63;;;587.20;;
53915;SDS011;39827;49.652;18.770;2023-03-25T12:06:52;634.95;;;582.42;;
53915;SDS011;39827;49.652;18.770;2023-03-25T12:09:18;571.90;;;523.72;;
53915;SDS011;39827;49.652;18.770;2023-03-25T12:12:03;532.45;;;485.98;;
53915;SDS011;39827;49.652;18.770;2023-03-25T12:14:50;579.72;;;530.33;;
53915;SDS011;39827;49.652;18.770;2023-03-25T13:11:14;710.30;;;651.13;;
53915;SDS011;39827;49.652;18.770;2023-03-25T13:13:45;712.25;;;651.92;;
53915;SDS011;39827;49.652;18.770;2023-03-25T13:16:18;728.25;;;667.22;;
53915;SDS011;39827;49.652;18.770;2023-03-25T13:18:49;713.70;;;653.45;;
53915;SDS011;39827;49.652;18.770;2023-03-25T13:21:27;712.63;;;651.88;;
53915;SDS011;39827;49.652;18.770;2023-03-25T13:24:00;743.47;;;682.33;;
53915;SDS011;39827;49.652;18.770;2023-03-25T13:26:30;732.17;;;674.85;;
53915;SDS011;39827;49.652;18.770;2023-03-25T13:28:56;570.60;;;523.00;;
53915;SDS011;39827;49.652;18.770;2023-03-25T13:31:28;785.33;;;723.40;;
53915;SDS011;39827;49.652;18.770;2023-03-25T13:36:44;712.42;;;656.72;;
53915;SDS011;39827;49.652;18.770;2023-03-25T13:39:22;509.88;;;466.05;;
53915;SDS011;39827;49.652;18.770;2023-03-25T13:42:01;552.92;;;505.77;;
53915;SDS011;39827;49.652;18.770;2023-03-25T13:44:36;458.00;;;418.13;;
53915;SDS011;39827;49.652;18.770;2023-03-25T13:47:16;363.48;;;333.85;;
53915;SDS011;39827;49.652;18.770;2023-03-25T13:52:16;435.48;;;396.63;;
53915;SDS011;39827;49.652;18.770;2023-03-25T13:54:44;362.73;;;331.90;;
53915;SDS011;39827;49.652;18.770;2023-03-25T14:13:24;542.45;;;498.48;;
53915;SDS011;39827;49.652;18.770;2023-03-25T14:16:09;756.90;;;694.70;;
53915;SDS011;39827;49.652;18.770;2023-03-25T14:18:51;770.70;;;707.30;;
53915;SDS011;39827;49.652;18.770;2023-03-25T14:23:48;547.22;;;499.58;;
53915;SDS011;39827;49.652;18.770;2023-03-25T14:26:29;556.70;;;508.42;;
53915;SDS011;39827;49.652;18.770;2023-03-25T14:28:58;496.60;;;453.30;;
53915;SDS011;39827;49.652;18.770;2023-03-25T14:31:31;504.00;;;460.63;;
53915;SDS011;39827;49.652;18.770;2023-03-25T14:36:29;503.17;;;459.25;;
53915;SDS011;39827;49.652;18.770;2023-03-25T14:38:56;537.88;;;490.85;;
53915;SDS011;39827;49.652;18.770;2023-03-25T14:44:36;621.70;;;569.35;;
53915;SDS011;39827;49.652;18.770;2023-03-25T14:52:20;600.97;;;551.78;;
53915;SDS011;39827;49.652;18.770;2023-03-25T14:54:58;683.42;;;627.10;;
53915;SDS011;39827;49.652;18.770;2023-03-25T14:57:30;665.50;;;608.80;;
53915;SDS011;39827;49.652;18.770;2023-03-25T15:00:04;572.88;;;523.33;;
53915;SDS011;39827;49.652;18.770;2023-03-25T15:02:38;591.78;;;541.20;;
53915;SDS011;39827;49.652;18.770;2023-03-25T15:07:52;570.20;;;521.78;;
53915;SDS011;39827;49.652;18.770;2023-03-25T15:13:09;554.53;;;506.38;;
53915;SDS011;39827;49.652;18.770;2023-03-25T15:18:57;638.50;;;584.17;;
53915;SDS011;39827;49.652;18.770;2023-03-25T15:26:08;573.53;;;524.85;;
53915;SDS011;39827;49.652;18.770;2023-03-25T15:34:33;599.17;;;548.85;;
53915;SDS011;39827;49.652;18.770;2023-03-25T15:37:51;561.05;;;515.60;;
53915;SDS011;39827;49.652;18.770;2023-03-25T15:40:22;566.60;;;520.63;;
53915;SDS011;39827;49.652;18.770;2023-03-25T15:56:40;578.70;;;533.22;;
53915;SDS011;39827;49.652;18.770;2023-03-25T16:02:20;526.38;;;484.15;;
53915;SDS011;39827;49.652;18.770;2023-03-25T16:04:52;584.05;;;536.67;;
53915;SDS011;39827;49.652;18.770;2023-03-25T16:07:19;579.22;;;532.63;;
53915;SDS011;39827;49.652;18.770;2023-03-25T16:09:48;558.85;;;513.78;;
53915;SDS011;39827;49.652;18.770;2023-03-25T16:12:18;591.13;;;543.35;;
53915;SDS011;39827;49.652;18.770;2023-03-25T16:14:48;583.35;;;535.10;;
53915;SDS011;39827;49.652;18.770;2023-03-25T16:17:15;600.30;;;551.70;;
53915;SDS011;39827;49.652;18.770;2023-03-25T16:19:43;585.58;;;537.67;;
53915;SDS011;39827;49.652;18.770;2023-03-25T16:22:26;632.30;;;579.80;;
53915;SDS011;39827;49.652;18.770;2023-03-25T16:24:54;596.03;;;547.78;;
53915;SDS011;39827;49.652;18.770;2023-03-25T16:27:28;635.78;;;584.05;;
53915;SDS011;39827;49.652;18.770;2023-03-25T16:29:55;640.75;;;588.63;;
53915;SDS011;39827;49.652;18.770;2023-03-25T16:32:29;580.83;;;533.70;;
53915;SDS011;39827;49.652;18.770;2023-03-25T16:34:59;619.35;;;568.88;;
53915;SDS011;39827;49.652;18.770;2023-03-25T16:37:25;480.08;;;440.92;;
53915;SDS011;39827;49.652;18.770;2023-03-25T16:39:51;569.88;;;523.10;;
53915;SDS011;39827;49.652;18.770;2023-03-25T16:45:01;499.75;;;459.45;;
53915;SDS011;39827;49.652;18.770;2023-03-25T16:47:29;530.65;;;486.73;;
53915;SDS011;39827;49.652;18.770;2023-03-25T16:49:57;572.47;;;524.75;;
53915;SDS011;39827;49.652;18.770;2023-03-25T16:52:26;505.63;;;463.08;;
53915;SDS011;39827;49.652;18.770;2023-03-25T16:57:21;688.10;;;630.47;;
53915;SDS011;39827;49.652;18.770;2023-03-25T16:59:50;551.10;;;504.30;;
53915;SDS011;39827;49.652;18.770;2023-03-25T17:02:28;597.53;;;547.17;;
53915;SDS011;39827;49.652;18.770;2023-03-25T17:04:54;720.95;;;661.30;;
53915;SDS011;39827;49.652;18.770;2023-03-25T17:07:36;542.88;;;497.48;;
53915;SDS011;39827;49.652;18.770;2023-03-25T17:10:04;608.08;;;557.45;;
53915;SDS011;39827;49.652;18.770;2023-03-25T17:12:43;619.22;;;566.88;;
53915;SDS011;39827;49.652;18.770;2023-03-25T17:15:10;611.13;;;558.95;;
53915;SDS011;39827;49.652;18.770;2023-03-25T17:17:44;625.22;;;571.63;;
53915;SDS011;39827;49.652;18.770;2023-03-25T17:20:23;611.13;;;558.58;;
53915;SDS011;39827;49.652;18.770;2023-03-25T17:22:57;633.35;;;579.67;;